Time;durP1;ratioP1;P1;durP2;ratioP2;P2;SDS_P1;SDS_P2;PMS_P1;PMS_P2;Temp;Humidity;BMP_temperature;BMP_pressure;BME280_temperature;BME280_humidity;BME280_pressure;Samples;Min_cycle;Max_cycle;Signal;HPM_P1;HPM_P2
2021/09/22 00:01:40;;;;;;;28.13;6.00;;;;;;;11.25;100.00;102317.75;7394089;19;20683;-58
2021/09/22 00:04:09;;;;;;;32.83;6.90;;;;;;;11.37;100.00;102323.69;7399633;19;20420;-56
2021/09/22 00:06:41;;;;;;;36.10;5.87;;;;;;;11.66;100.00;102327.25;7393569;19;20419;-57
2021/09/22 00:09:11;;;;;;;27.40;7.20;;;;;;;11.84;100.00;102322.28;7401335;19;20388;-59
2021/09/22 00:11:41;;;;;;;43.17;18.50;;;;;;;11.98;100.00;102320.56;7394444;19;20419;-57
2021/09/22 00:14:10;;;;;;;69.00;25.30;;;;;;;11.74;100.00;102315.66;7399137;19;20887;-56
2021/09/22 00:16:40;;;;;;;16.80;4.23;;;;;;;11.39;100.00;102308.28;7393268;19;20704;-56
2021/09/22 00:19:10;;;;;;;28.27;5.80;;;;;;;11.25;100.00;102310.91;7401006;19;20380;-58
2021/09/22 00:21:42;;;;;;;27.73;5.10;;;;;;;11.24;100.00;102309.13;7394013;19;20478;-59
2021/09/22 00:24:11;;;;;;;42.63;10.63;;;;;;;11.20;100.00;102300.28;7399267;19;20425;-59
2021/09/22 00:26:41;;;;;;;33.47;8.17;;;;;;;11.34;100.00;102308.88;7393024;19;20417;-60
2021/09/22 00:29:11;;;;;;;26.40;4.13;;;;;;;11.16;100.00;102303.44;7400587;19;20394;-55
2021/09/22 00:31:40;;;;;;;22.33;7.17;;;;;;;11.33;100.00;102307.09;7393715;19;20419;-57
2021/09/22 00:34:11;;;;;;;35.07;11.60;;;;;;;11.53;100.00;102309.19;7398606;19;20483;-59
2021/09/22 00:36:43;;;;;;;27.67;5.67;;;;;;;11.42;100.00;102301.63;7392813;19;20429;-57
2021/09/22 00:39:12;;;;;;;25.93;6.80;;;;;;;11.39;100.00;102301.41;7400391;19;20463;-57
2021/09/22 00:41:42;;;;;;;27.93;6.30;;;;;;;11.59;100.00;102305.25;7393459;19;20482;-58
2021/09/22 00:44:12;;;;;;;27.30;6.80;;;;;;;11.44;100.00;102310.34;7398527;19;20429;-58
2021/09/22 00:46:41;;;;;;;23.43;5.70;;;;;;;11.44;100.00;102307.78;7392194;19;20434;-59
2021/09/22 00:49:11;;;;;;;22.70;5.57;;;;;;;11.51;100.00;102301.31;7400025;19;20407;-57
2021/09/22 00:51:43;;;;;;;17.93;4.40;;;;;;;11.64;100.00;102307.25;7379123;19;20409;-58
2021/09/22 00:54:14;;;;;;;22.93;4.97;;;;;;;11.38;100.00;102314.25;7399382;19;20418;-57
2021/09/22 00:56:44;;;;;;;22.97;6.17;;;;;;;11.54;100.00;102305.78;7391988;19;20434;-59
2021/09/22 00:59:13;;;;;;;27.57;6.40;;;;;;;11.33;100.00;102298.44;7399713;19;20658;-56
2021/09/22 01:01:47;;;;;;;14.30;4.20;;;;;;;11.21;100.00;102302.06;7392813;19;20719;-59
2021/09/22 01:04:17;;;;;;;31.67;5.63;;;;;;;11.37;100.00;102307.31;7397789;19;20717;-59
2021/09/22 01:06:49;;;;;;;26.07;5.30;;;;;;;11.23;100.00;102303.84;7393125;19;20447;-58
2021/09/22 01:09:19;;;;;;;16.50;3.97;;;;;;;11.19;100.00;102308.81;7398938;19;20368;-55
2021/09/22 01:11:49;;;;;;;31.03;4.90;;;;;;;11.11;100.00;102302.25;7392615;19;20502;-57
2021/09/22 01:14:23;;;;;;;19.70;4.90;;;;;;;11.14;100.00;102305.06;7397328;19;20925;-59
2021/09/22 01:16:53;;;;;;;25.70;5.50;;;;;;;11.19;100.00;102308.81;7391451;19;20419;-58
2021/09/22 01:19:26;;;;;;;24.23;5.10;;;;;;;11.23;100.00;102309.00;7399239;19;20407;-59
2021/09/22 01:21:58;;;;;;;21.40;4.43;;;;;;;11.21;100.00;102314.06;7372786;19;20412;-60
2021/09/22 01:24:28;;;;;;;28.70;5.43;;;;;;;11.26;100.00;102314.38;7399078;19;20380;-58
2021/09/22 01:26:57;;;;;;;16.73;4.10;;;;;;;11.32;100.00;102317.34;7370218;19;20481;-57
2021/09/22 01:29:27;;;;;;;18.80;4.37;;;;;;;11.24;100.00;102318.53;7398106;19;20459;-60
2021/09/22 01:31:57;;;;;;;26.37;5.17;;;;;;;11.31;100.00;102313.88;7392116;19;20487;-59
2021/09/22 01:34:26;;;;;;;24.63;5.43;;;;;;;11.35;100.00;102294.28;7395738;19;20880;-60
2021/09/22 01:36:58;;;;;;;26.07;5.30;;;;;;;11.25;100.00;102294.50;7389756;19;20446;-58
2021/09/22 01:39:28;;;;;;;30.60;5.13;;;;;;;11.05;100.00;102299.28;7398611;19;20396;-52
2021/09/22 01:41:57;;;;;;;23.23;5.63;;;;;;;10.89;100.00;102298.31;7391276;19;20423;-54
2021/09/22 01:44:27;;;;;;;22.77;5.20;;;;;;;10.86;100.00;102298.09;7398183;19;20387;-59
2021/09/22 01:46:56;;;;;;;22.13;4.30;;;;;;;10.97;100.00;102305.66;7390567;19;20921;-55
2021/09/22 01:49:26;;;;;;;22.90;4.53;;;;;;;11.16;100.00;102305.13;7398419;19;20475;-57
2021/09/22 01:52:03;;;;;;;17.90;4.33;;;;;;;11.08;100.00;102312.41;7391265;19;20479;-59
2021/09/22 01:54:32;;;;;;;22.87;4.60;;;;;;;10.82;100.00;102311.59;7398174;19;20405;-56
2021/09/22 01:57:02;;;;;;;21.63;5.80;;;;;;;10.74;100.00;102307.59;7389477;19;20490;-54
2021/09/22 01:59:32;;;;;;;22.77;5.30;;;;;;;10.76;100.00;102306.00;7398173;19;20844;-58
2021/09/22 02:02:02;;;;;;;21.73;5.23;;;;;;;10.78;100.00;102312.19;7391051;19;20419;-59
2021/09/22 02:04:31;;;;;;;29.97;7.17;;;;;;;10.84;100.00;102310.00;7396927;19;20395;-57
2021/09/22 02:07:04;;;;;;;23.43;5.10;;;;;;;10.78;100.00;102304.44;7390448;19;20474;-57
2021/09/22 02:09:33;;;;;;;12.63;4.47;;;;;;;10.84;100.00;102304.84;7397860;19;20376;-54
2021/09/22 02:12:03;;;;;;;20.73;7.10;;;;;;;10.78;100.00;102299.28;7390653;19;20415;-57
2021/09/22 02:14:32;;;;;;;22.30;5.60;;;;;;;10.76;100.00;102295.69;7397459;19;20395;-54
2021/09/22 02:17:02;;;;;;;33.87;5.80;;;;;;;10.73;100.00;102299.00;7389072;19;20480;-57
2021/09/22 02:19:32;;;;;;;26.23;10.60;;;;;;;10.85;100.00;102291.13;7397647;19;20398;-56
2021/09/22 02:22:04;;;;;;;27.63;6.00;;;;;;;10.79;100.00;102290.75;7392452;19;20474;-60
2021/09/22 02:24:34;;;;;;;28.83;5.53;;;;;;;10.74;100.00;102295.59;7404762;19;20384;-55
2021/09/22 02:27:04;;;;;;;30.93;10.50;;;;;;;10.82;100.00;102301.25;7397117;19;20425;-60
2021/09/22 02:29:33;;;;;;;23.20;6.30;;;;;;;10.97;100.00;102306.53;7404605;19;20419;-57
2021/09/22 02:32:03;;;;;;;25.80;5.37;;;;;;;10.86;100.00;102297.22;7397697;19;20479;-58
2021/09/22 02:34:33;;;;;;;19.07;5.50;;;;;;;10.71;100.00;102297.09;7404188;19;20412;-57
2021/09/22 02:37:06;;;;;;;26.60;4.77;;;;;;;10.72;100.00;102307.50;7395996;19;20475;-52
2021/09/22 02:39:35;;;;;;;21.40;5.20;;;;;;;10.76;100.00;102306.00;7404299;19;20447;-58
2021/09/22 02:42:05;;;;;;;27.27;6.93;;;;;;;10.77;100.00;102302.66;7397144;19;20479;-58
2021/09/22 02:44:36;;;;;;;20.03;7.10;;;;;;;10.85;100.00;102296.31;7403854;19;20402;-54
2021/09/22 02:47:06;;;;;;;28.30;10.00;;;;;;;10.90;100.00;102300.09;7395751;19;20422;-55
2021/09/22 02:49:35;;;;;;;28.83;6.27;;;;;;;10.84;100.00;102297.09;7403938;19;20868;-55
2021/09/22 02:52:08;;;;;;;19.87;5.77;;;;;;;10.72;100.00;102298.88;7396588;19;20419;-55
2021/09/22 02:54:37;;;;;;;23.67;4.90;;;;;;;10.65;100.00;102293.31;7403424;19;20388;-58
2021/09/22 02:57:07;;;;;;;26.20;5.27;;;;;;;10.64;100.00;102294.13;7396056;19;20483;-59
2021/09/22 02:59:37;;;;;;;17.13;5.13;;;;;;;10.71;100.00;102295.38;7403382;19;20455;-55
2021/09/22 03:02:06;;;;;;;23.47;5.20;;;;;;;10.72;100.00;102292.00;7395264;19;20415;-59
2021/09/22 03:04:37;;;;;;;21.77;5.07;;;;;;;10.67;100.00;102283.97;7403222;19;20873;-56
2021/09/22 03:07:09;;;;;;;21.43;5.67;;;;;;;10.90;100.00;102279.44;7395952;19;20436;-54
2021/09/22 03:09:38;;;;;;;26.57;6.40;;;;;;;10.99;100.00;102288.56;7403118;19;20394;-58
2021/09/22 03:12:08;;;;;;;28.93;9.60;;;;;;;10.99;100.00;102278.22;7398036;19;20471;-52
2021/09/22 03:14:38;;;;;;;26.40;5.60;;;;;;;10.92;100.00;102284.69;7402648;19;20399;-58
2021/09/22 03:17:08;;;;;;;26.53;6.63;;;;;;;10.78;100.00;102274.34;7394972;19;20429;-58
2021/09/22 03:19:37;;;;;;;23.37;6.40;;;;;;;10.76;100.00;102281.09;7403047;19;20392;-59
2021/09/22 03:22:09;;;;;;;17.47;4.60;;;;;;;10.70;100.00;102284.97;7395699;19;20680;-60
2021/09/22 03:24:39;;;;;;;22.63;5.70;;;;;;;10.62;100.00;102285.34;7402722;19;20380;-59
2021/09/22 03:27:08;;;;;;;19.93;5.33;;;;;;;10.59;100.00;102284.25;7395165;19;20423;-60
2021/09/22 03:29:38;;;;;;;31.03;5.67;;;;;;;10.60;100.00;102278.28;7402611;19;20384;-58
2021/09/22 03:32:08;;;;;;;18.20;4.63;;;;;;;10.84;100.00;102276.44;7395540;19;20411;-60
2021/09/22 03:34:38;;;;;;;25.87;6.57;;;;;;;10.66;100.00;102274.44;7402139;19;20396;-53
2021/09/22 03:37:10;;;;;;;65.77;27.97;;;;;;;11.02;100.00;102275.84;7394375;19;20419;-54
2021/09/22 03:39:40;;;;;;;49.20;21.40;;;;;;;11.17;100.00;102263.00;7402309;19;20384;-58
2021/09/22 03:42:09;;;;;;;32.83;15.63;;;;;;;11.19;100.00;102257.13;7395225;19;20407;-56
2021/09/22 03:44:39;;;;;;;54.17;23.30;;;;;;;11.16;100.00;102262.13;7401849;19;20469;-59
2021/09/22 03:47:09;;;;;;;21.40;7.53;;;;;;;10.88;100.00;102269.78;7394287;19;20436;-59
2021/09/22 03:49:38;;;;;;;27.90;7.27;;;;;;;10.73;100.00;102274.84;7401841;19;20387;-59
2021/09/22 03:52:10;;;;;;;62.03;27.47;;;;;;;10.93;100.00;102271.88;7394630;19;20439;-58
2021/09/22 03:54:40;;;;;;;36.97;16.73;;;;;;;11.05;100.00;102268.28;7401602;19;20392;-59
2021/09/22 03:57:10;;;;;;;36.97;14.93;;;;;;;11.26;100.00;102266.19;7393888;19;20411;-57
2021/09/22 03:59:40;;;;;;;28.77;7.90;;;;;;;11.12;100.00;102273.03;7401850;19;20396;-57
2021/09/22 04:02:10;;;;;;;21.87;4.80;;;;;;;10.90;100.00;102269.09;7395275;19;20411;-56
2021/09/22 04:04:40;;;;;;;28.13;6.67;;;;;;;10.69;100.00;102278.00;7401183;19;20830;-56
2021/09/22 04:07:12;;;;;;;17.00;4.90;;;;;;;10.57;100.00;102288.44;7393940;19;20423;-53
2021/09/22 04:09:41;;;;;;;15.10;4.90;;;;;;;10.53;100.00;102289.91;7401312;19;20846;-58
2021/09/22 04:12:11;;;;;;;20.03;5.53;;;;;;;10.49;100.00;102295.66;7393997;19;20420;-55
2021/09/22 04:14:40;;;;;;;19.33;5.87;;;;;;;10.42;100.00;102284.03;7400602;19;20388;-54
2021/09/22 04:17:10;;;;;;;25.67;5.60;;;;;;;10.40;100.00;102291.66;7392434;19;20441;-56
2021/09/22 04:19:39;;;;;;;15.83;5.10;;;;;;;10.43;100.00;102285.84;7400888;19;20387;-58
2021/09/22 04:22:12;;;;;;;15.03;4.70;;;;;;;10.37;100.00;102283.69;7393850;19;20430;-59
2021/09/22 04:24:41;;;;;;;15.93;5.03;;;;;;;10.42;100.00;102283.13;7400459;19;20387;-56
2021/09/22 04:27:11;;;;;;;21.80;4.73;;;;;;;10.37;100.00;102281.09;7392943;19;20427;-60
2021/09/22 04:29:42;;;;;;;22.63;5.53;;;;;;;10.30;100.00;102281.50;7400532;19;20392;-57
2021/09/22 04:32:11;;;;;;;33.40;12.43;;;;;;;10.59;100.00;102276.50;7393594;19;20933;-56
2021/09/22 04:34:41;;;;;;;33.90;10.37;;;;;;;10.62;100.00;102277.59;7400129;19;20384;-60
2021/09/22 04:37:14;;;;;;;24.97;6.30;;;;;;;10.52;100.00;102276.09;7392038;19;20435;-56
2021/09/22 04:39:43;;;;;;;39.00;14.43;;;;;;;10.65;100.00;102275.25;7400274;19;20396;-57
2021/09/22 04:42:13;;;;;;;36.40;12.57;;;;;;;10.96;100.00;102278.03;7393178;19;20435;-57
2021/09/22 04:44:42;;;;;;;26.43;10.20;;;;;;;10.73;100.00;102272.25;7398607;19;20678;-57
2021/09/22 04:47:13;;;;;;;21.30;6.70;;;;;;;10.77;100.00;102276.84;7392377;19;20433;-58
2021/09/22 04:49:42;;;;;;;19.57;5.47;;;;;;;10.72;100.00;102273.06;7400080;19;20394;-57
2021/09/22 04:52:14;;;;;;;16.53;4.67;;;;;;;10.56;100.00;102266.88;7392680;19;20438;-60
2021/09/22 04:54:44;;;;;;;30.30;8.83;;;;;;;10.59;100.00;102273.94;7399814;19;20388;-55
2021/09/22 04:57:14;;;;;;;25.93;5.60;;;;;;;10.54;100.00;102273.63;7391657;19;20452;-60
2021/09/22 04:59:44;;;;;;;20.67;4.90;;;;;;;10.48;100.00;102279.31;7399784;19;20451;-56
2021/09/22 05:02:13;;;;;;;22.20;5.03;;;;;;;10.46;100.00;102277.41;7394156;19;20449;-54
2021/09/22 05:04:44;;;;;;;26.20;7.03;;;;;;;10.78;100.00;102268.31;7399494;19;20380;-56
2021/09/22 05:07:16;;;;;;;24.43;6.40;;;;;;;10.95;100.00;102271.97;7391913;19;20499;-59
2021/09/22 05:09:45;;;;;;;21.57;6.00;;;;;;;11.12;100.00;102265.28;7399490;19;20398;-53
2021/09/22 05:12:15;;;;;;;23.10;5.23;;;;;;;10.90;100.00;102276.84;7392281;19;20423;-59
2021/09/22 05:14:45;;;;;;;21.27;5.80;;;;;;;10.75;100.00;102275.84;7398945;19;20465;-57
2021/09/22 05:17:15;;;;;;;18.77;4.73;;;;;;;10.67;100.00;102281.41;7391125;19;20611;-56
2021/09/22 05:19:44;;;;;;;27.37;5.07;;;;;;;10.61;100.00;102286.16;7403593;19;20404;-56
2021/09/22 05:22:16;;;;;;;12.37;3.90;;;;;;;10.55;100.00;102290.91;7391961;19;20426;-57
2021/09/22 05:24:47;;;;;;;28.00;5.33;;;;;;;10.54;100.00;102294.28;7399070;19;20380;-57
2021/09/22 05:27:17;;;;;;;20.37;4.90;;;;;;;10.44;100.00;102294.44;7391681;19;20778;-58
2021/09/22 05:29:47;;;;;;;17.63;4.40;;;;;;;10.44;100.00;102302.19;7398897;19;20455;-54
2021/09/22 05:32:16;;;;;;;19.13;5.10;;;;;;;10.40;100.00;102296.81;7391905;19;20423;-56
2021/09/22 05:34:46;;;;;;;33.50;5.47;;;;;;;10.44;100.00;102307.34;7398737;19;20392;-59
2021/09/22 05:37:19;;;;;;;22.73;6.07;;;;;;;10.53;100.00;102315.72;7390647;19;20510;-54
2021/09/22 05:39:48;;;;;;;15.73;5.47;;;;;;;10.70;100.00;102311.69;7399048;19;20455;-57
2021/09/22 05:42:18;;;;;;;20.03;6.00;;;;;;;10.64;100.00;102307.03;7391079;19;20445;-56
2021/09/22 05:44:52;;;;;;;39.97;16.73;;;;;;;10.96;100.00;102309.91;7398143;19;20399;-59
2021/09/22 05:47:22;;;;;;;31.57;10.93;;;;;;;11.14;100.00;102309.31;7370670;19;20495;-55
2021/09/22 05:49:51;;;;;;;35.53;15.53;;;;;;;11.11;100.00;102304.84;7398129;19;20511;-57
2021/09/22 05:52:23;;;;;;;21.33;6.03;;;;;;;11.10;100.00;102303.06;7389805;19;20490;-56
2021/09/22 05:54:54;;;;;;;29.87;12.37;;;;;;;11.05;100.00;102301.88;7397926;19;20404;-56
2021/09/22 05:57:24;;;;;;;55.40;26.30;;;;;;;11.16;100.00;102300.88;7392616;19;20498;-60
2021/09/22 05:59:53;;;;;;;13.00;5.90;;;;;;;11.17;100.00;102292.31;7405461;19;20455;-55
2021/09/22 06:02:23;;;;;;;20.43;6.87;;;;;;;11.20;100.00;102294.22;7396905;19;20423;-52
2021/09/22 06:04:54;;;;;;;26.03;10.43;;;;;;;11.22;100.00;102300.34;7405099;19;20392;-58
2021/09/22 06:07:26;;;;;;;30.57;12.83;;;;;;;11.35;100.00;102294.28;7396931;19;20418;-54
2021/09/22 06:09:55;;;;;;;40.37;17.00;;;;;;;11.48;100.00;102301.09;7405269;19;20517;-59
2021/09/22 06:12:25;;;;;;;30.87;15.10;;;;;;;11.46;100.00;102294.97;7396794;19;20425;-60
2021/09/22 06:14:55;;;;;;;38.53;18.20;;;;;;;11.52;100.00;102287.59;7405258;19;20391;-60
2021/09/22 06:17:24;;;;;;;44.23;18.03;;;;;;;11.54;100.00;102295.44;7395887;19;20429;-60
2021/09/22 06:19:54;;;;;;;27.37;11.03;;;;;;;11.53;100.00;102299.72;7404884;19;20394;-57
2021/09/22 06:22:26;;;;;;;24.03;6.60;;;;;;;11.37;100.00;102291.81;7395762;19;20422;-58
2021/09/22 06:24:56;;;;;;;23.17;6.07;;;;;;;11.18;100.00;102290.66;7404366;19;20693;-54
2021/09/22 06:27:26;;;;;;;25.60;5.53;;;;;;;11.06;100.00;102301.06;7395974;19;20427;-58
2021/09/22 06:29:56;;;;;;;27.57;6.50;;;;;;;11.05;100.00;102304.44;7404393;19;20388;-55
2021/09/22 06:32:25;;;;;;;26.83;7.90;;;;;;;11.08;100.00;102315.00;7395946;19;20703;-58
2021/09/22 06:34:55;;;;;;;27.57;6.63;;;;;;;11.09;100.00;102316.78;7404569;19;20384;-59
2021/09/22 06:37:27;;;;;;;21.77;5.80;;;;;;;11.13;100.00;102318.75;7375820;19;20490;-58
2021/09/22 06:39:56;;;;;;;29.13;6.63;;;;;;;11.18;100.00;102319.06;7404347;19;20650;-53
2021/09/22 06:42:26;;;;;;;30.57;6.97;;;;;;;11.22;100.00;102318.44;7395527;19;20447;-60
2021/09/22 06:44:56;;;;;;;27.53;6.27;;;;;;;11.19;100.00;102320.84;7403923;19;20462;-56
2021/09/22 06:47:25;;;;;;;27.17;6.90;;;;;;;11.27;100.00;102327.38;7395634;19;20941;-55
2021/09/22 06:49:55;;;;;;;37.17;7.00;;;;;;;11.33;100.00;102329.44;7404553;19;20463;-57
2021/09/22 06:52:29;;;;;;;32.03;7.47;;;;;;;11.29;100.00;102330.06;7395618;19;20693;-60
2021/09/22 06:54:59;;;;;;;27.13;7.07;;;;;;;11.47;100.00;102328.66;7403451;19;20872;-57
2021/09/22 06:57:29;;;;;;;21.70;7.33;;;;;;;11.51;100.00;102326.25;7395464;19;20752;-59
2021/09/22 06:59:59;;;;;;;27.97;8.30;;;;;;;11.48;100.00;102339.88;7404099;19;20661;-58
2021/09/22 07:02:28;;;;;;;24.13;6.70;;;;;;;11.57;100.00;102335.31;7395318;19;20738;-56
2021/09/22 07:04:58;;;;;;;28.03;8.20;;;;;;;11.70;100.00;102339.53;7403159;19;20395;-57
2021/09/22 07:07:30;;;;;;;23.63;7.90;;;;;;;11.81;100.00;102340.22;7393349;19;20486;-57
2021/09/22 07:10:00;;;;;;;32.20;8.20;;;;;;;11.90;100.00;102347.66;7405470;19;20403;-57
2021/09/22 07:12:31;;;;;;;27.73;8.20;;;;;;;12.00;100.00;102338.78;7395202;19;20897;-57
2021/09/22 07:15:01;;;;;;;30.57;8.80;;;;;;;12.10;100.00;102342.84;7402799;19;20398;-52
2021/09/22 07:17:31;;;;;;;29.90;8.10;;;;;;;12.16;100.00;102340.63;7394983;19;20419;-57
2021/09/22 07:20:01;;;;;;;29.77;8.70;;;;;;;12.18;100.00;102336.44;7400615;19;20400;-52
2021/09/22 07:22:33;;;;;;;23.37;7.87;;;;;;;12.14;100.00;102337.03;7394470;19;20419;-56
2021/09/22 07:25:03;;;;;;;35.60;7.93;;;;;;;12.26;100.00;102332.59;7402622;19;20402;-58
2021/09/22 07:27:32;;;;;;;23.17;8.07;;;;;;;12.30;100.00;102333.69;7394127;19;20419;-60
2021/09/22 07:30:02;;;;;;;27.20;8.73;;;;;;;12.42;100.00;102333.53;7402546;19;20380;-58
2021/09/22 07:32:32;;;;;;;42.70;11.07;;;;;;;12.58;100.00;102331.84;7394552;19;20407;-56
2021/09/22 07:35:01;;;;;;;30.90;12.37;;;;;;;12.66;100.00;102335.75;7402373;19;20423;-54
2021/09/22 07:37:33;;;;;;;28.83;9.33;;;;;;;12.62;100.00;102333.81;7393622;19;20419;-56
2021/09/22 07:40:03;;;;;;;30.23;8.77;;;;;;;12.70;100.00;102335.13;7400346;19;20392;-57
2021/09/22 07:42:33;;;;;;;36.70;10.00;;;;;;;12.80;100.00;102333.97;7394456;19;20486;-57
2021/09/22 07:45:03;;;;;;;32.47;9.37;;;;;;;12.99;100.00;102328.16;7401793;19;20455;-55
2021/09/22 07:47:32;;;;;;;28.00;8.67;;;;;;;13.11;100.00;102325.38;7394067;19;20479;-60
2021/09/22 07:50:02;;;;;;;30.73;9.03;;;;;;;13.05;100.00;102315.56;7401994;19;20854;-59
2021/09/22 07:52:34;;;;;;;30.27;10.00;;;;;;;12.98;100.00;102318.63;7393624;19;20482;-60
2021/09/22 07:55:05;;;;;;;24.40;9.00;;;;;;;12.94;100.00;102319.25;7401648;19;20387;-53
2021/09/22 07:57:35;;;;;;;30.10;8.53;;;;;;;13.00;100.00;102309.22;7396476;19;20420;-57
2021/09/22 08:00:05;;;;;;;27.63;8.40;;;;;;;13.07;100.00;102313.94;7399811;19;20733;-52
2021/09/22 08:02:35;;;;;;;26.83;8.53;;;;;;;13.02;100.00;102317.97;7393534;19;20873;-58
2021/09/22 08:05:05;;;;;;;33.23;9.00;;;;;;;13.12;100.00;102313.31;7401175;19;20391;-59
2021/09/22 08:07:47;;;;;;;28.73;8.93;;;;;;;13.15;100.00;102316.97;7393507;19;20419;-59
2021/09/22 08:10:18;;;;;;;26.23;8.20;;;;;;;13.26;100.00;102307.19;7402116;19;20400;-60
2021/09/22 08:12:50;;;;;;;23.80;8.57;;;;;;;13.34;100.00;102300.72;7393448;19;20427;-57
2021/09/22 08:15:20;;;;;;;25.50;8.47;;;;;;;13.58;100.00;102297.72;7400859;19;20412;-51
2021/09/22 08:17:49;;;;;;;22.57;7.20;;;;;;;13.73;100.00;102291.56;7394085;19;20414;-54
2021/09/22 08:20:19;;;;;;;27.30;13.40;;;;;;;13.82;100.00;102293.75;7396753;19;20388;-58
2021/09/22 08:22:51;;;;;;;29.57;9.03;;;;;;;13.90;100.00;102293.34;7392964;19;20471;-57
2021/09/22 08:25:21;;;;;;;28.43;9.43;;;;;;;13.98;100.00;102285.97;7400521;19;20379;-56
2021/09/22 08:27:51;;;;;;;21.40;6.70;;;;;;;14.06;100.00;102288.06;7393246;19;20413;-56
2021/09/22 08:30:21;;;;;;;22.43;6.30;;;;;;;14.16;100.00;102279.97;7400580;19;20447;-56
2021/09/22 08:32:50;;;;;;;32.53;7.67;;;;;;;14.22;100.00;102274.19;7392618;19;20421;-58
2021/09/22 08:35:20;;;;;;;18.50;5.87;;;;;;;14.15;100.00;102270.41;7400330;19;20855;-57
2021/09/22 08:37:52;;;;;;;23.23;7.33;;;;;;;14.09;100.00;102265.78;7392370;19;20479;-54
2021/09/22 08:40:21;;;;;;;18.63;6.50;;;;;;;14.34;100.00;102268.72;7398997;19;20400;-56
2021/09/22 08:42:51;;;;;;;25.53;5.77;;;;;;;14.51;100.00;102266.97;7392087;19;20995;-56
2021/09/22 08:45:21;;;;;;;20.53;6.30;;;;;;;14.55;100.00;102274.09;7399887;19;20388;-57
2021/09/22 08:47:50;;;;;;;22.37;6.23;;;;;;;14.68;100.00;102270.41;7392725;19;20426;-59
2021/09/22 08:50:21;;;;;;;27.07;6.10;;;;;;;14.65;100.00;102265.94;7399964;19;20901;-58
2021/09/22 08:53:07;;;;;;;25.87;5.40;;;;;;;14.65;100.00;102268.53;7391559;19;20433;-57
2021/09/22 08:55:37;;;;;;;27.07;5.60;;;;;;;14.65;100.00;102263.34;7399275;19;20392;-55
2021/09/22 08:58:06;;;;;;;22.93;5.70;;;;;;;14.87;100.00;102248.81;7392508;19;20418;-59
2021/09/22 09:00:36;;;;;;;21.13;5.30;;;;;;;14.66;100.00;102261.66;7398187;19;20459;-59
2021/09/22 09:03:06;;;;;;;17.73;5.67;;;;;;;14.90;100.00;102248.97;7391356;19;20877;-58
2021/09/22 09:05:36;;;;;;;13.70;4.57;;;;;;;14.99;100.00;102251.13;7399064;19;20390;-59
2021/09/22 09:08:10;;;;;;;24.33;6.73;;;;;;;15.06;100.00;102244.50;7392247;19;20498;-58
2021/09/22 09:10:39;;;;;;;18.50;5.57;;;;;;;15.20;100.00;102248.66;7399647;19;20660;-55
2021/09/22 09:13:10;;;;;;;21.03;6.30;;;;;;;15.31;100.00;102246.53;7392383;19;20461;-58
2021/09/22 09:15:42;;;;;;;14.00;4.70;;;;;;;15.31;100.00;102258.63;7402643;19;20717;-57
2021/09/22 09:18:18;;;;;;;18.27;4.80;;;;;;;15.21;100.00;102242.63;7391525;19;20491;-58
2021/09/22 09:20:48;;;;;;;17.83;5.57;;;;;;;15.10;100.00;102249.94;7397587;19;20375;-58
2021/09/22 09:23:22;;;;;;;13.50;5.03;;;;;;;15.19;100.00;102240.78;7397234;19;20483;-56
2021/09/22 09:25:59;;;;;;;19.47;5.80;;;;;;;15.12;100.00;102242.19;7391608;19;20399;-59
2021/09/22 09:28:32;;;;;;;13.20;5.77;;;;;;;15.37;100.00;102232.91;7398435;19;20388;-57
2021/09/22 09:31:04;;;;;;;13.50;6.10;;;;;;;15.79;100.00;102243.47;7394143;19;20392;-55
2021/09/22 09:33:36;;;;;;;10.17;4.30;;;;;;;15.21;100.00;102242.63;7404090;19;20431;-56
2021/09/22 09:36:20;;;;;;;12.13;5.80;;;;;;;15.49;100.00;102243.00;7398745;19;20461;-59
2021/09/22 09:38:55;;;;;;;20.20;11.40;;;;;;;15.47;100.00;102245.53;7406238;19;20856;-58
2021/09/22 09:41:31;;;;;;;52.63;31.63;;;;;;;15.69;100.00;102243.00;7398445;19;20421;-59
2021/09/22 09:44:01;;;;;;;17.87;5.50;;;;;;;15.74;100.00;102238.91;7403832;19;20479;-52
2021/09/22 09:46:32;;;;;;;10.30;6.03;;;;;;;15.86;100.00;102233.31;7398455;19;20433;-55
2021/09/22 09:49:06;;;;;;;15.20;5.83;;;;;;;15.79;100.00;102235.66;7406045;19;20834;-55
2021/09/22 09:51:39;;;;;;;17.30;6.40;;;;;;;16.08;100.00;102234.25;7398720;19;20474;-49
2021/09/22 09:54:22;;;;;;;21.37;5.63;;;;;;;16.29;100.00;102235.19;7403194;19;20422;-57
2021/09/22 09:56:53;;;;;;;16.20;5.67;;;;;;;16.27;100.00;102236.84;7396594;19;20903;-57
2021/09/22 09:59:24;;;;;;;23.03;5.77;;;;;;;16.23;100.00;102232.31;7404852;19;20442;-55
2021/09/22 10:01:56;;;;;;;15.40;6.43;;;;;;;15.95;100.00;102243.28;7397965;19;20433;-58
2021/09/22 10:04:27;;;;;;;14.77;6.50;;;;;;;15.90;100.00;102240.44;7405366;19;20416;-59
2021/09/22 10:06:56;;;;;;;14.40;6.00;;;;;;;16.05;100.00;102235.06;7397305;19;20853;-54
2021/09/22 10:09:29;;;;;;;15.50;5.27;;;;;;;15.78;100.00;102239.09;7405076;19;20463;-55
2021/09/22 10:11:58;;;;;;;12.27;5.03;;;;;;;15.73;100.00;102232.78;7397916;19;20475;-55
2021/09/22 10:14:31;;;;;;;19.03;5.70;;;;;;;16.00;100.00;102240.03;7404972;19;20458;-57
2021/09/22 10:17:02;;;;;;;14.73;5.40;;;;;;;16.08;100.00;102236.88;7396905;19;20433;-55
2021/09/22 10:19:33;;;;;;;14.63;5.70;;;;;;;16.28;100.00;102235.13;7404580;19;20402;-59
2021/09/22 10:22:02;;;;;;;13.00;5.13;;;;;;;16.50;100.00;102236.88;7397384;19;20908;-56
2021/09/22 10:24:35;;;;;;;22.00;4.70;;;;;;;16.50;100.00;102231.69;7404897;19;20372;-53
2021/09/22 10:27:04;;;;;;;11.20;4.20;;;;;;;16.15;100.00;102231.13;7396046;19;20423;-57
2021/09/22 10:29:36;;;;;;;16.73;4.30;;;;;;;15.91;100.00;102222.28;7405165;19;20411;-56
2021/09/22 10:32:08;;;;;;;15.03;5.53;;;;;;;16.07;100.00;102220.38;7397144;19;20415;-58
2021/09/22 10:34:39;;;;;;;17.63;5.67;;;;;;;16.22;100.00;102219.22;7404518;19;20380;-58
2021/09/22 10:37:32;;;;;;;18.17;4.83;;;;;;;16.11;100.00;102209.28;7395823;19;20747;-52
2021/09/22 10:40:05;;;;;;;13.30;4.53;;;;;;;15.97;100.00;102211.28;7404353;19;20348;-58
2021/09/22 10:42:38;;;;;;;17.73;4.03;;;;;;;16.03;100.00;102216.75;7393008;19;20440;-55
2021/09/22 10:45:19;;;;;;;11.10;4.30;;;;;;;15.94;100.00;102205.94;7404067;19;20729;-59
2021/09/22 10:47:50;;;;;;;15.00;5.10;;;;;;;15.98;100.00;102212.16;7396692;19;20421;-60
2021/09/22 10:50:48;;;;;;;12.77;4.00;;;;;;;15.96;100.00;102206.91;7404613;19;20443;-58
2021/09/22 10:53:36;;;;;;;14.40;3.90;;;;;;;16.03;100.00;102201.13;7401865;19;20403;-56
2021/09/22 10:56:10;;;;;;;13.63;4.60;;;;;;;15.86;100.00;102203.00;7396400;19;20682;-55
2021/09/22 10:58:45;;;;;;;11.97;4.13;;;;;;;16.16;100.00;102206.88;7403808;19;20463;-58
2021/09/22 11:01:51;;;;;;;12.23;4.20;;;;;;;16.51;100.00;102196.97;7394661;19;20429;-57
2021/09/22 11:04:24;;;;;;;13.30;4.30;;;;;;;16.70;100.00;102187.28;7401152;19;20447;-59
2021/09/22 11:07:01;;;;;;;17.10;4.53;;;;;;;16.57;100.00;102183.31;7395662;19;20414;-56
2021/09/22 11:09:36;;;;;;;11.07;5.27;;;;;;;16.55;100.00;102182.34;7403327;19;20463;-57
2021/09/22 11:12:13;;;;;;;10.40;4.50;;;;;;;16.68;100.00;102181.13;7397929;19;20489;-59
2021/09/22 11:14:48;;;;;;;12.40;5.37;;;;;;;16.74;100.00;102176.16;7407218;19;20402;-55
2021/09/22 11:17:19;;;;;;;16.50;5.10;;;;;;;16.75;100.00;102167.50;7373720;19;20872;-59
2021/09/22 11:19:51;;;;;;;15.17;5.33;;;;;;;16.80;100.00;102181.63;7402642;19;20396;-58
2021/09/22 11:22:23;;;;;;;12.93;4.47;;;;;;;16.93;100.00;102177.78;7395500;19;20426;-59
2021/09/22 11:24:54;;;;;;;9.23;4.30;;;;;;;16.90;100.00;102177.66;7402795;19;20727;-58
2021/09/22 11:27:27;;;;;;;10.83;5.67;;;;;;;17.03;100.00;102179.03;7393606;19;20420;-58